sensor_id;sensor_type;location;lat;lon;timestamp;pressure;altitude;pressure_sealevel;temperature;humidity
82222;BME280;71818;52.352;10.912;2023-12-22T00:00:11;97841.94;;;1.98;100.00
82222;BME280;71818;52.352;10.912;2023-12-22T00:02:37;97857.03;;;1.94;100.00
82222;BME280;71818;52.352;10.912;2023-12-22T00:05:02;97850.53;;;1.89;100.00
82222;BME280;71818;52.352;10.912;2023-12-22T00:07:28;97855.25;;;1.84;100.00
82222;BME280;71818;52.352;10.912;2023-12-22T00:09:53;97850.53;;;1.89;100.00
82222;BME280;71818;52.352;10.912;2023-12-22T00:12:19;97848.28;;;1.84;100.00
82222;BME280;71818;52.352;10.912;2023-12-22T00:14:44;97856.22;;;1.94;100.00
82222;BME280;71818;52.352;10.912;2023-12-22T00:17:10;97848.16;;;1.86;100.00
82222;BME280;71818;52.352;10.912;2023-12-22T00:19:35;97856.94;;;1.85;100.00
82222;BME280;71818;52.352;10.912;2023-12-22T00:22:01;97844.09;;;1.82;100.00
82222;BME280;71818;52.352;10.912;2023-12-22T00:24:28;97857.53;;;1.77;100.00
82222;BME280;71818;52.352;10.912;2023-12-22T00:26:54;97855.75;;;1.66;100.00
82222;BME280;71818;52.352;10.912;2023-12-22T00:29:20;97855.41;;;1.71;100.00
82222;BME280;71818;52.352;10.912;2023-12-22T00:31:45;97869.06;;;1.63;100.00
82222;BME280;71818;52.352;10.912;2023-12-22T00:34:10;97880.34;;;1.64;100.00
82222;BME280;71818;52.352;10.912;2023-12-22T00:36:36;97880.47;;;1.73;100.00
82222;BME280;71818;52.352;10.912;2023-12-22T00:39:01;97873.09;;;1.78;100.00
82222;BME280;71818;52.352;10.912;2023-12-22T00:41:27;97884.03;;;1.95;100.00
82222;BME280;71818;52.352;10.912;2023-12-22T00:43:52;97878.56;;;1.98;100.00
82222;BME280;71818;52.352;10.912;2023-12-22T00:46:17;97871.91;;;2.05;100.00
82222;BME280;71818;52.352;10.912;2023-12-22T00:48:44;97874.97;;;2.10;100.00
82222;BME280;71818;52.352;10.912;2023-12-22T00:51:10;97871.16;;;2.14;100.00
82222;BME280;71818;52.352;10.912;2023-12-22T00:53:35;97886.03;;;2.25;100.00
82222;BME280;71818;52.352;10.912;2023-12-22T00:56:01;97864.97;;;2.26;100.00
82222;BME280;71818;52.352;10.912;2023-12-22T00:58:29;97876.16;;;2.28;100.00
82222;BME280;71818;52.352;10.912;2023-12-22T01:00:55;97866.28;;;2.32;100.00
82222;BME280;71818;52.352;10.912;2023-12-22T01:03:20;97880.28;;;2.42;100.00
82222;BME280;71818;52.352;10.912;2023-12-22T01:05:45;97884.56;;;2.43;100.00
82222;BME280;71818;52.352;10.912;2023-12-22T01:08:11;97895.84;;;2.55;100.00
82222;BME280;71818;52.352;10.912;2023-12-22T01:10:36;97886.06;;;2.57;100.00
82222;BME280;71818;52.352;10.912;2023-12-22T01:13:02;97877.78;;;2.52;100.00
82222;BME280;71818;52.352;10.912;2023-12-22T01:15:27;97866.59;;;2.50;100.00
82222;BME280;71818;52.352;10.912;2023-12-22T01:17:53;97881.47;;;2.49;100.00
82222;BME280;71818;52.352;10.912;2023-12-22T01:20:18;97873.25;;;2.54;100.00
82222;BME280;71818;52.352;10.912;2023-12-22T01:22:44;97889.78;;;2.54;100.00
82222;BME280;71818;52.352;10.912;2023-12-22T01:25:09;97876.69;;;2.54;100.00
82222;BME280;71818;52.352;10.912;2023-12-22T01:27:34;97890.88;;;2.52;100.00
82222;BME280;71818;52.352;10.912;2023-12-22T01:30:00;97883.81;;;2.63;100.00
82222;BME280;71818;52.352;10.912;2023-12-22T01:32:25;97889.06;;;2.63;100.00
82222;BME280;71818;52.352;10.912;2023-12-22T01:34:51;97893.69;;;2.60;100.00
82222;BME280;71818;52.352;10.912;2023-12-22T01:37:16;97908.56;;;2.59;100.00
82222;BME280;71818;52.352;10.912;2023-12-22T01:39:41;97907.03;;;2.57;100.00
82222;BME280;71818;52.352;10.912;2023-12-22T01:42:07;97900.16;;;2.45;100.00
82222;BME280;71818;52.352;10.912;2023-12-22T01:44:32;97903.16;;;2.40;100.00
82222;BME280;71818;52.352;10.912;2023-12-22T01:46:58;97891.38;;;2.34;100.00
82222;BME280;71818;52.352;10.912;2023-12-22T01:49:24;97899.69;;;2.39;100.00
82222;BME280;71818;52.352;10.912;2023-12-22T01:51:51;97900.88;;;2.47;100.00
82222;BME280;71818;52.352;10.912;2023-12-22T01:54:18;97916.59;;;2.47;100.00
82222;BME280;71818;52.352;10.912;2023-12-22T01:56:44;97907.56;;;2.28;100.00
82222;BME280;71818;52.352;10.912;2023-12-22T01:59:11;97903.06;;;2.19;100.00
82222;BME280;71818;52.352;10.912;2023-12-22T02:01:38;97887.94;;;2.23;100.00
82222;BME280;71818;52.352;10.912;2023-12-22T02:04:04;97895.28;;;2.51;100.00
82222;BME280;71818;52.352;10.912;2023-12-22T02:06:30;97893.47;;;2.52;100.00
82222;BME280;71818;52.352;10.912;2023-12-22T02:08:57;97885.88;;;2.49;100.00
82222;BME280;71818;52.352;10.912;2023-12-22T02:11:23;97883.25;;;2.49;100.00
82222;BME280;71818;52.352;10.912;2023-12-22T02:13:49;97879.81;;;2.37;100.00
82222;BME280;71818;52.352;10.912;2023-12-22T02:16:22;97880.66;;;2.37;100.00
82222;BME280;71818;52.352;10.912;2023-12-22T02:18:52;97885.41;;;2.44;100.00
82222;BME280;71818;52.352;10.912;2023-12-22T02:21:20;97893.16;;;2.45;100.00
82222;BME280;71818;52.352;10.912;2023-12-22T02:23:47;97881.47;;;2.49;100.00
82222;BME280;71818;52.352;10.912;2023-12-22T02:26:18;97888.50;;;2.49;100.00
82222;BME280;71818;52.352;10.912;2023-12-22T02:28:47;97889.06;;;2.52;100.00
82222;BME280;71818;52.352;10.912;2023-12-22T02:31:17;97893.47;;;2.52;100.00
82222;BME280;71818;52.352;10.912;2023-12-22T02:33:48;97877.03;;;2.61;100.00
82222;BME280;71818;52.352;10.912;2023-12-22T02:36:19;97884.38;;;2.67;100.00
82222;BME280;71818;52.352;10.912;2023-12-22T02:38:46;97892.66;;;2.51;100.00
82222;BME280;71818;52.352;10.912;2023-12-22T02:41:12;97890.69;;;2.32;100.00
82222;BME280;71818;52.352;10.912;2023-12-22T02:43:37;97900.91;;;2.24;100.00
82222;BME280;71818;52.352;10.912;2023-12-22T02:46:03;97897.00;;;2.19;100.00
82222;BME280;71818;52.352;10.912;2023-12-22T02:48:28;97871.78;;;2.18;100.00
82222;BME280;71818;52.352;10.912;2023-12-22T02:50:54;97882.59;;;2.13;100.00
82222;BME280;71818;52.352;10.912;2023-12-22T02:53:19;97897.59;;;2.22;100.00
82222;BME280;71818;52.352;10.912;2023-12-22T02:55:45;97889.03;;;2.20;100.00
82222;BME280;71818;52.352;10.912;2023-12-22T02:58:10;97879.03;;;2.14;100.00
82222;BME280;71818;52.352;10.912;2023-12-22T03:00:35;97878.09;;;2.15;100.00
82222;BME280;71818;52.352;10.912;2023-12-22T03:03:01;97884.63;;;2.21;100.00
82222;BME280;71818;52.352;10.912;2023-12-22T03:05:26;97882.84;;;2.21;100.00
82222;BME280;71818;52.352;10.912;2023-12-22T03:07:52;97878.66;;;2.30;100.00
82222;BME280;71818;52.352;10.912;2023-12-22T03:10:17;97885.66;;;2.29;100.00
82222;BME280;71818;52.352;10.912;2023-12-22T03:12:42;97877.81;;;2.29;100.00
82222;BME280;71818;52.352;10.912;2023-12-22T03:15:08;97882.22;;;2.29;100.00
82222;BME280;71818;52.352;10.912;2023-12-22T03:17:34;97875.19;;;2.29;100.00
82222;BME280;71818;52.352;10.912;2023-12-22T03:19:59;97881.03;;;2.33;100.00
82222;BME280;71818;52.352;10.912;2023-12-22T03:22:25;97868.28;;;2.28;100.00
82222;BME280;71818;52.352;10.912;2023-12-22T03:24:50;97865.06;;;2.36;100.00
82222;BME280;71818;52.352;10.912;2023-12-22T03:27:15;97864.81;;;2.39;100.00
82222;BME280;71818;52.352;10.912;2023-12-22T03:29:43;97858.88;;;2.37;100.00
82222;BME280;71818;52.352;10.912;2023-12-22T03:32:09;97866.34;;;2.42;100.00
82222;BME280;71818;52.352;10.912;2023-12-22T03:34:34;97866.97;;;2.45;100.00
82222;BME280;71818;52.352;10.912;2023-12-22T03:37:00;97868.72;;;2.45;100.00
82222;BME280;71818;52.352;10.912;2023-12-22T03:39:25;97868.63;;;2.46;100.00
82222;BME280;71818;52.352;10.912;2023-12-22T03:41:51;97853.75;;;2.47;100.00
82222;BME280;71818;52.352;10.912;2023-12-22T03:44:16;97843.28;;;2.47;100.00
82222;BME280;71818;52.352;10.912;2023-12-22T03:46:42;97857.31;;;2.46;100.00
82222;BME280;71818;52.352;10.912;2023-12-22T03:49:07;97840.78;;;2.45;100.00
82222;BME280;71818;52.352;10.912;2023-12-22T03:51:33;97855.06;;;2.41;100.00
82222;BME280;71818;52.352;10.912;2023-12-22T03:53:58;97846.63;;;2.37;100.00
82222;BME280;71818;52.352;10.912;2023-12-22T03:56:24;97854.59;;;2.36;100.00
82222;BME280;71818;52.352;10.912;2023-12-22T03:58:49;97853.31;;;2.30;100.00
82222;BME280;71818;52.352;10.912;2023-12-22T04:01:15;97858.06;;;2.25;100.00
82222;BME280;71818;52.352;10.912;2023-12-22T04:03:40;97848.81;;;2.21;100.00
82222;BME280;71818;52.352;10.912;2023-12-22T04:06:06;97857.16;;;2.15;100.00
82222;BME280;71818;52.352;10.912;2023-12-22T04:08:31;97857.88;;;2.06;100.00
82222;BME280;71818;52.352;10.912;2023-12-22T04:10:57;97862.16;;;1.96;100.00
82222;BME280;71818;52.352;10.912;2023-12-22T04:13:22;97851.34;;;1.89;100.00
82222;BME280;71818;52.352;10.912;2023-12-22T04:15:48;97862.06;;;1.86;100.00
82222;BME280;71818;52.352;10.912;2023-12-22T04:18:13;97839.34;;;1.87;100.00
82222;BME280;71818;52.352;10.912;2023-12-22T04:20:39;97856.00;;;1.86;100.00
82222;BME280;71818;52.352;10.912;2023-12-22T04:23:04;97859.19;;;1.89;100.00
82222;BME280;71818;52.352;10.912;2023-12-22T04:25:30;97859.41;;;1.97;100.00
82222;BME280;71818;52.352;10.912;2023-12-22T04:27:55;97870.50;;;2.01;100.00
82222;BME280;71818;52.352;10.912;2023-12-22T04:30:21;97866.56;;;1.95;100.00
82222;BME280;71818;52.352;10.912;2023-12-22T04:32:46;97867.25;;;1.97;100.00
82222;BME280;71818;52.352;10.912;2023-12-22T04:35:11;97862.28;;;1.94;100.00
82222;BME280;71818;52.352;10.912;2023-12-22T04:37:37;97866.09;;;1.90;100.00
82222;BME280;71818;52.352;10.912;2023-12-22T04:40:02;97878.09;;;1.93;100.00
82222;BME280;71818;52.352;10.912;2023-12-22T04:42:28;97847.91;;;2.00;100.00
82222;BME280;71818;52.352;10.912;2023-12-22T04:44:54;97870.00;;;1.96;100.00
82222;BME280;71818;52.352;10.912;2023-12-22T04:47:19;97877.97;;;2.05;100.00
82222;BME280;71818;52.352;10.912;2023-12-22T04:49:45;97872.13;;;2.13;100.00
82222;BME280;71818;52.352;10.912;2023-12-22T04:52:11;97868.47;;;2.16;100.00
82222;BME280;71818;52.352;10.912;2023-12-22T04:54:37;97870.56;;;2.22;100.00
82222;BME280;71818;52.352;10.912;2023-12-22T04:57:03;97871.72;;;2.40;100.00
82222;BME280;71818;52.352;10.912;2023-12-22T04:59:29;97871.28;;;2.35;100.00
82222;BME280;71818;52.352;10.912;2023-12-22T05:01:54;97861.00;;;2.43;100.00
82222;BME280;71818;52.352;10.912;2023-12-22T05:04:20;97860.03;;;2.44;100.00
82222;BME280;71818;52.352;10.912;2023-12-22T05:06:46;97862.56;;;2.46;100.00
82222;BME280;71818;52.352;10.912;2023-12-22T05:09:12;97876.00;;;2.41;100.00
82222;BME280;71818;52.352;10.912;2023-12-22T05:11:37;97868.72;;;2.45;100.00
82222;BME280;71818;52.352;10.912;2023-12-22T05:14:03;97873.88;;;2.46;100.00
82222;BME280;71818;52.352;10.912;2023-12-22T05:16:29;97878.16;;;2.47;100.00
82222;BME280;71818;52.352;10.912;2023-12-22T05:18:57;97889.22;;;2.39;100.00
82222;BME280;71818;52.352;10.912;2023-12-22T05:21:23;97886.03;;;2.36;100.00
82222;BME280;71818;52.352;10.912;2023-12-22T05:23:48;97901.75;;;2.25;100.00
82222;BME280;71818;52.352;10.912;2023-12-22T05:26:20;97892.72;;;2.18;100.00
82222;BME280;71818;52.352;10.912;2023-12-22T05:28:46;97902.69;;;2.13;100.00
82222;BME280;71818;52.352;10.912;2023-12-22T05:31:12;97928.88;;;2.13;100.00
82222;BME280;71818;52.352;10.912;2023-12-22T05:33:38;97920.19;;;2.23;100.00
82222;BME280;71818;52.352;10.912;2023-12-22T05:36:04;97956.72;;;2.25;100.00
82222;BME280;71818;52.352;10.912;2023-12-22T05:38:29;97933.16;;;2.14;100.00
82222;BME280;71818;52.352;10.912;2023-12-22T05:40:55;97908.16;;;1.98;100.00
82222;BME280;71818;52.352;10.912;2023-12-22T05:43:20;97922.91;;;1.77;100.00
82222;BME280;71818;52.352;10.912;2023-12-22T05:45:46;97940.25;;;1.56;100.00
82222;BME280;71818;52.352;10.912;2023-12-22T05:48:11;97945.56;;;1.43;100.00
82222;BME280;71818;52.352;10.912;2023-12-22T05:50:36;97940.69;;;1.38;100.00
82222;BME280;71818;52.352;10.912;2023-12-22T05:53:02;97935.78;;;1.23;100.00
82222;BME280;71818;52.352;10.912;2023-12-22T05:55:28;97935.50;;;1.14;100.00
82222;BME280;71818;52.352;10.912;2023-12-22T05:57:54;97925.94;;;1.02;100.00
82222;BME280;71818;52.352;10.912;2023-12-22T06:00:20;97930.19;;;0.92;100.00
82222;BME280;71818;52.352;10.912;2023-12-22T06:02:46;97927.06;;;0.87;100.00
82222;BME280;71818;52.352;10.912;2023-12-22T06:05:11;97917.56;;;0.86;100.00
82222;BME280;71818;52.352;10.912;2023-12-22T06:07:37;97937.13;;;0.80;100.00
82222;BME280;71818;52.352;10.912;2023-12-22T06:10:02;97923.47;;;0.77;100.00
82222;BME280;71818;52.352;10.912;2023-12-22T06:12:28;97948.84;;;0.75;100.00
82222;BME280;71818;52.352;10.912;2023-12-22T06:14:53;97949.06;;;0.72;100.00
82222;BME280;71818;52.352;10.912;2023-12-22T06:17:19;97947.63;;;0.68;100.00
82222;BME280;71818;52.352;10.912;2023-12-22T06:19:44;97955.34;;;0.69;100.00
82222;BME280;71818;52.352;10.912;2023-12-22T06:22:10;97959.25;;;0.87;100.00
82222;BME280;71818;52.352;10.912;2023-12-22T06:24:35;97979.63;;;1.06;100.00
82222;BME280;71818;52.352;10.912;2023-12-22T06:27:04;97938.13;;;1.14;100.00
82222;BME280;71818;52.352;10.912;2023-12-22T06:29:29;97938.81;;;1.16;100.00
82222;BME280;71818;52.352;10.912;2023-12-22T06:31:56;97931.97;;;1.27;100.00
82222;BME280;71818;52.352;10.912;2023-12-22T06:34:21;97950.28;;;1.27;100.00
82222;BME280;71818;52.352;10.912;2023-12-22T06:36:47;97957.41;;;1.36;100.00
82222;BME280;71818;52.352;10.912;2023-12-22T06:39:12;97966.72;;;1.40;100.00
82222;BME280;71818;52.352;10.912;2023-12-22T06:41:39;97962.81;;;1.45;100.00
82222;BME280;71818;52.352;10.912;2023-12-22T06:44:04;97974.44;;;1.41;100.00
82222;BME280;71818;52.352;10.912;2023-12-22T06:46:30;97982.09;;;1.56;100.00
82222;BME280;71818;52.352;10.912;2023-12-22T06:48:56;97981.97;;;1.57;100.00
82222;BME280;71818;52.352;10.912;2023-12-22T06:51:23;97997.59;;;1.81;100.00
82222;BME280;71818;52.352;10.912;2023-12-22T06:53:49;97996.16;;;1.77;100.00
82222;BME280;71818;52.352;10.912;2023-12-22T06:56:19;98011.63;;;1.80;100.00
82222;BME280;71818;52.352;10.912;2023-12-22T06:58:45;98019.59;;;1.78;100.00
82222;BME280;71818;52.352;10.912;2023-12-22T07:01:21;98021.13;;;1.70;100.00
82222;BME280;71818;52.352;10.912;2023-12-22T07:03:48;98032.94;;;1.52;100.00
82222;BME280;71818;52.352;10.912;2023-12-22T07:06:17;98000.31;;;1.33;100.00
82222;BME280;71818;52.352;10.912;2023-12-22T07:08:43;97992.38;;;1.46;100.00
82222;BME280;71818;52.352;10.912;2023-12-22T07:11:12;97973.53;;;1.54;100.00
82222;BME280;71818;52.352;10.912;2023-12-22T07:13:37;97978.59;;;1.44;100.00
82222;BME280;71818;52.352;10.912;2023-12-22T07:16:04;98003.63;;;1.35;100.00
82222;BME280;71818;52.352;10.912;2023-12-22T07:18:30;97997.25;;;1.15;100.00
82222;BME280;71818;52.352;10.912;2023-12-22T07:21:00;98006.94;;;1.02;100.00
82222;BME280;71818;52.352;10.912;2023-12-22T07:23:25;98036.72;;;1.00;100.00
82222;BME280;71818;52.352;10.912;2023-12-22T07:25:51;98032.72;;;1.07;100.00
82222;BME280;71818;52.352;10.912;2023-12-22T07:28:16;98037.78;;;0.97;100.00
82222;BME280;71818;52.352;10.912;2023-12-22T07:30:42;98050.53;;;0.89;100.00
82222;BME280;71818;52.352;10.912;2023-12-22T07:33:07;98055.28;;;0.84;100.00
82222;BME280;71818;52.352;10.912;2023-12-22T07:35:33;98034.50;;;0.82;100.00
82222;BME280;71818;52.352;10.912;2023-12-22T07:37:59;98027.34;;;0.97;100.00
82222;BME280;71818;52.352;10.912;2023-12-22T07:40:25;98026.94;;;0.90;100.00
82222;BME280;71818;52.352;10.912;2023-12-22T07:42:50;98032.97;;;0.91;100.00
82222;BME280;71818;52.352;10.912;2023-12-22T07:45:16;98045.13;;;1.16;100.00
82222;BME280;71818;52.352;10.912;2023-12-22T07:47:41;98057.84;;;1.20;100.00
82222;BME280;71818;52.352;10.912;2023-12-22T07:50:07;98055.31;;;1.32;100.00
82222;BME280;71818;52.352;10.912;2023-12-22T07:52:34;98060.94;;;1.38;100.00
82222;BME280;71818;52.352;10.912;2023-12-22T07:55:05;98060.91;;;1.62;100.00
82222;BME280;71818;52.352;10.912;2023-12-22T07:57:30;98081.16;;;1.71;100.00
82222;BME280;71818;52.352;10.912;2023-12-22T07:59:56;98082.34;;;1.78;100.00
82222;BME280;71818;52.352;10.912;2023-12-22T08:02:21;98072.69;;;2.03;100.00
82222;BME280;71818;52.352;10.912;2023-12-22T08:04:48;98099.25;;;2.21;100.00
82222;BME280;71818;52.352;10.912;2023-12-22T08:07:14;98090.22;;;2.25;100.00
82222;BME280;71818;52.352;10.912;2023-12-22T08:09:39;98101.06;;;2.31;100.00
82222;BME280;71818;52.352;10.912;2023-12-22T08:12:05;98110.59;;;2.32;100.00
82222;BME280;71818;52.352;10.912;2023-12-22T08:14:31;98104.97;;;2.26;100.00
82222;BME280;71818;52.352;10.912;2023-12-22T08:16:56;98103.78;;;2.19;100.00
82222;BME280;71818;52.352;10.912;2023-12-22T08:19:22;98105.56;;;2.18;100.00
82222;BME280;71818;52.352;10.912;2023-12-22T08:21:47;98107.94;;;2.21;100.00
82222;BME280;71818;52.352;10.912;2023-12-22T08:24:12;98108.50;;;2.02;100.00
82222;BME280;71818;52.352;10.912;2023-12-22T08:26:38;98124.50;;;1.98;100.00
82222;BME280;71818;52.352;10.912;2023-12-22T08:29:03;98111.66;;;2.41;100.00
82222;BME280;71818;52.352;10.912;2023-12-22T08:31:29;98109.78;;;2.99;100.00
82222;BME280;71818;52.352;10.912;2023-12-22T08:33:54;98122.31;;;3.07;100.00
82222;BME280;71818;52.352;10.912;2023-12-22T08:36:20;98131.59;;;2.77;100.00
82222;BME280;71818;52.352;10.912;2023-12-22T08:38:46;98121.44;;;2.50;100.00
82222;BME280;71818;52.352;10.912;2023-12-22T08:41:11;98134.66;;;3.05;100.00
82222;BME280;71818;52.352;10.912;2023-12-22T08:43:39;98124.78;;;2.75;100.00
82222;BME280;71818;52.352;10.912;2023-12-22T08:46:05;98124.44;;;2.79;100.00
82222;BME280;71818;52.352;10.912;2023-12-22T08:48:31;98144.91;;;2.63;100.00
82222;BME280;71818;52.352;10.912;2023-12-22T08:50:56;98138.28;;;2.92;100.00
82222;BME280;71818;52.352;10.912;2023-12-22T08:53:22;98136.09;;;3.20;100.00
82222;BME280;71818;52.352;10.912;2023-12-22T08:55:47;98144.44;;;3.14;100.00
82222;BME280;71818;52.352;10.912;2023-12-22T08:58:13;98139.06;;;3.15;100.00
82222;BME280;71818;52.352;10.912;2023-12-22T09:00:38;98167.31;;;2.89;100.00
82222;BME280;71818;52.352;10.912;2023-12-22T09:03:04;98186.81;;;2.74;100.00
82222;BME280;71818;52.352;10.912;2023-12-22T09:05:29;98175.41;;;2.64;100.00
82222;BME280;71818;52.352;10.912;2023-12-22T09:07:55;98175.13;;;2.56;100.00
82222;BME280;71818;52.352;10.912;2023-12-22T09:10:20;98176.31;;;2.52;100.00
82222;BME280;71818;52.352;10.912;2023-12-22T09:12:46;98169.41;;;2.51;100.00
82222;BME280;71818;52.352;10.912;2023-12-22T09:15:11;98188.47;;;2.53;100.00
82222;BME280;71818;52.352;10.912;2023-12-22T09:17:37;98189.44;;;2.63;100.00
82222;BME280;71818;52.352;10.912;2023-12-22T09:20:02;98170.72;;;2.56;100.00
82222;BME280;71818;52.352;10.912;2023-12-22T09:22:28;98179.41;;;2.57;100.00
82222;BME280;71818;52.352;10.912;2023-12-22T09:24:53;98175.13;;;2.56;100.00
82222;BME280;71818;52.352;10.912;2023-12-22T09:27:19;98173.59;;;2.53;100.00
82222;BME280;71818;52.352;10.912;2023-12-22T09:29:45;98181.69;;;2.50;100.00
82222;BME280;71818;52.352;10.912;2023-12-22T09:32:10;98181.19;;;2.56;100.00
82222;BME280;71818;52.352;10.912;2023-12-22T09:34:35;98188.38;;;2.65;100.00
82222;BME280;71818;52.352;10.912;2023-12-22T09:37:01;98181.38;;;2.77;100.00
82222;BME280;71818;52.352;10.912;2023-12-22T09:39:26;98169.81;;;2.91;100.00
82222;BME280;71818;52.352;10.912;2023-12-22T09:41:54;98152.81;;;3.08;100.00
82222;BME280;71818;52.352;10.912;2023-12-22T09:44:20;98162.28;;;3.42;100.00
82222;BME280;71818;52.352;10.912;2023-12-22T09:46:48;98153.88;;;3.71;100.00
82222;BME280;71818;52.352;10.912;2023-12-22T09:49:18;98154.25;;;3.98;100.00
82222;BME280;71818;52.352;10.912;2023-12-22T09:51:45;98161.59;;;4.15;100.00
82222;BME280;71818;52.352;10.912;2023-12-22T09:54:12;98150.41;;;4.34;100.00
82222;BME280;71818;52.352;10.912;2023-12-22T09:56:39;98152.38;;;4.42;100.00
82222;BME280;71818;52.352;10.912;2023-12-22T09:59:11;98155.06;;;4.52;100.00
82222;BME280;71818;52.352;10.912;2023-12-22T10:01:41;98157.50;;;4.64;100.00
82222;BME280;71818;52.352;10.912;2023-12-22T10:04:08;98165.88;;;4.79;100.00
82222;BME280;71818;52.352;10.912;2023-12-22T10:06:34;98180.38;;;4.53;100.00
82222;BME280;71818;52.352;10.912;2023-12-22T10:08:59;98184.84;;;4.41;100.00
82222;BME280;71818;52.352;10.912;2023-12-22T10:11:27;98187.75;;;4.38;100.00
82222;BME280;71818;52.352;10.912;2023-12-22T10:13:54;98200.22;;;4.25;100.00
82222;BME280;71818;52.352;10.912;2023-12-22T10:16:20;98190.00;;;4.10;100.00
82222;BME280;71818;52.352;10.912;2023-12-22T10:18:46;98196.63;;;3.94;100.00
82222;BME280;71818;52.352;10.912;2023-12-22T10:21:12;98217.34;;;3.65;100.00
82222;BME280;71818;52.352;10.912;2023-12-22T10:23:37;98221.16;;;3.49;100.00
82222;BME280;71818;52.352;10.912;2023-12-22T10:26:03;98252.28;;;3.32;100.00
82222;BME280;71818;52.352;10.912;2023-12-22T10:28:28;98216.75;;;2.83;100.00
82222;BME280;71818;52.352;10.912;2023-12-22T10:30:54;98236.28;;;2.44;100.00
82222;BME280;71818;52.352;10.912;2023-12-22T10:33:21;98231.56;;;2.25;100.00
82222;BME280;71818;52.352;10.912;2023-12-22T10:35:46;98230.25;;;1.71;100.00
82222;BME280;71818;52.352;10.912;2023-12-22T10:38:13;98264.69;;;1.53;100.00
82222;BME280;71818;52.352;10.912;2023-12-22T10:40:39;98263.69;;;1.30;100.00
82222;BME280;71818;52.352;10.912;2023-12-22T10:43:04;98253.78;;;1.09;100.00
82222;BME280;71818;52.352;10.912;2023-12-22T10:45:30;98266.53;;;1.01;100.00
82222;BME280;71818;52.352;10.912;2023-12-22T10:47:57;98266.75;;;0.98;100.00
82222;BME280;71818;52.352;10.912;2023-12-22T10:50:22;98262.34;;;0.99;100.00
82222;BME280;71818;52.352;10.912;2023-12-22T10:52:52;98260.78;;;0.83;100.00
82222;BME280;71818;52.352;10.912;2023-12-22T10:55:19;98258.66;;;0.63;100.00
82222;BME280;71818;52.352;10.912;2023-12-22T10:57:47;98244.03;;;0.60;100.00
82222;BME280;71818;52.352;10.912;2023-12-22T11:00:15;98260.22;;;0.53;100.00
82222;BME280;71818;52.352;10.912;2023-12-22T11:02:42;98242.34;;;0.47;100.00
82222;BME280;71818;52.352;10.912;2023-12-22T11:05:11;98254.47;;;0.60;100.00
82222;BME280;71818;52.352;10.912;2023-12-22T11:07:37;98250.09;;;0.74;100.00
82222;BME280;71818;52.352;10.912;2023-12-22T11:10:05;98247.94;;;0.80;100.00
82222;BME280;71818;52.352;10.912;2023-12-22T11:12:35;98233.72;;;0.97;100.00
82222;BME280;71818;52.352;10.912;2023-12-22T11:15:05;98228.50;;;1.10;100.00
82222;BME280;71818;52.352;10.912;2023-12-22T11:17:32;98223.88;;;1.26;100.00
82222;BME280;71818;52.352;10.912;2023-12-22T11:19:59;98227.56;;;1.47;100.00
82222;BME280;71818;52.352;10.912;2023-12-22T11:22:25;98217.59;;;1.65;100.00
82222;BME280;71818;52.352;10.912;2023-12-22T11:24:51;98216.34;;;1.71;100.00
82222;BME280;71818;52.352;10.912;2023-12-22T11:27:20;98220.50;;;1.73;100.00
82222;BME280;71818;52.352;10.912;2023-12-22T11:29:50;98212.81;;;1.83;100.00
82222;BME280;71818;52.352;10.912;2023-12-22T11:32:19;98218.84;;;1.96;100.00
82222;BME280;71818;52.352;10.912;2023-12-22T11:34:48;98222.84;;;2.13;100.00
82222;BME280;71818;52.352;10.912;2023-12-22T11:37:15;98220.22;;;2.13;100.00
82222;BME280;71818;52.352;10.912;2023-12-22T11:39:42;98217.88;;;2.21;100.00
82222;BME280;71818;52.352;10.912;2023-12-22T11:42:16;98198.13;;;2.17;100.00
82222;BME280;71818;52.352;10.912;2023-12-22T11:44:43;98215.78;;;2.02;100.00
82222;BME280;71818;52.352;10.912;2023-12-22T11:47:09;98204.19;;;1.94;100.00
82222;BME280;71818;52.352;10.912;2023-12-22T11:49:36;98197.03;;;1.85;100.00
82222;BME280;71818;52.352;10.912;2023-12-22T11:55:01;98220.31;;;1.64;100.00
82222;BME280;71818;52.352;10.912;2023-12-22T11:59:54;98197.34;;;1.80;100.00
82222;BME280;71818;52.352;10.912;2023-12-22T12:02:21;98187.59;;;1.82;100.00
82222;BME280;71818;52.352;10.912;2023-12-22T12:04:52;98183.00;;;1.86;100.00
82222;BME280;71818;52.352;10.912;2023-12-22T12:10:09;98195.72;;;2.14;100.00
82222;BME280;71818;52.352;10.912;2023-12-22T12:12:35;98208.72;;;2.16;100.00
82222;BME280;71818;52.352;10.912;2023-12-22T12:15:13;98210.16;;;2.20;100.00
82222;BME280;71818;52.352;10.912;2023-12-22T12:17:42;98205.50;;;2.23;100.00
82222;BME280;71818;52.352;10.912;2023-12-22T12:20:10;98200.13;;;2.14;100.00
82222;BME280;71818;52.352;10.912;2023-12-22T12:22:36;98199.25;;;2.02;100.00
82222;BME280;71818;52.352;10.912;2023-12-22T12:25:09;98191.13;;;1.94;100.00
82222;BME280;71818;52.352;10.912;2023-12-22T12:27:36;98198.47;;;1.89;100.00
82222;BME280;71818;52.352;10.912;2023-12-22T12:30:21;98192.53;;;1.87;100.00
82222;BME280;71818;52.352;10.912;2023-12-22T12:32:48;98199.00;;;1.81;100.00
82222;BME280;71818;52.352;10.912;2023-12-22T12:35:14;98192.00;;;1.82;100.00
82222;BME280;71818;52.352;10.912;2023-12-22T12:37:40;98202.16;;;1.86;100.00
82222;BME280;71818;52.352;10.912;2023-12-22T12:40:07;98194.75;;;2.04;100.00
82222;BME280;71818;52.352;10.912;2023-12-22T12:42:35;98196.06;;;2.09;100.00
82222;BME280;71818;52.352;10.912;2023-12-22T12:45:04;98197.28;;;2.17;100.00
82222;BME280;71818;52.352;10.912;2023-12-22T12:47:29;98192.44;;;2.23;100.00
82222;BME280;71818;52.352;10.912;2023-12-22T12:50:01;98190.53;;;2.25;100.00
82222;BME280;71818;52.352;10.912;2023-12-22T12:52:27;98195.53;;;2.28;100.00